Time;durP1;ratioP1;P1;durP2;ratioP2;P2;SDS_P1;SDS_P2;PMS_P1;PMS_P2;Temp;Humidity;BMP_temperature;BMP_pressure;BME280_temperature;BME280_humidity;BME280_pressure;Samples;Min_cycle;Max_cycle;Signal;HPM_P1;HPM_P2
2022/09/21 00:00:51;;;;;;;4.67;1.70;;;;;;;10.60;79.79;100409.47;1822087;78;20908;-89
2022/09/21 00:03:18;;;;;;;2.20;1.42;;;;;;;10.57;79.62;100412.30;1821799;78;20868;-89
2022/09/21 00:05:44;;;;;;;3.60;1.77;;;;;;;10.55;79.56;100404.52;1821694;78;20896;-89
2022/09/21 00:08:13;;;;;;;2.35;1.92;;;;;;;10.53;79.31;100403.77;1821831;78;20908;-88
2022/09/21 00:10:41;;;;;;;1.65;1.55;;;;;;;10.50;79.19;100407.08;1821943;78;20970;-89
2022/09/21 00:13:07;;;;;;;1.72;1.25;;;;;;;10.47;79.24;100405.50;1825108;77;20852;-90
2022/09/21 00:15:35;;;;;;;2.27;1.85;;;;;;;10.46;79.37;100412.14;1828077;77;20935;-90
2022/09/21 00:18:02;;;;;;;1.87;1.62;;;;;;;10.43;79.29;100411.03;1799907;78;21484;-89
2022/09/21 00:20:29;;;;;;;1.98;1.87;;;;;;;10.40;79.20;100412.03;1825632;77;21730;-89
2022/09/21 00:22:55;;;;;;;1.50;1.40;;;;;;;10.35;79.09;100414.95;1825381;78;21318;-91
2022/09/21 00:25:22;;;;;;;3.98;1.70;;;;;;;10.32;78.89;100411.22;1825267;77;21432;-89
2022/09/21 00:27:50;;;;;;;2.65;1.50;;;;;;;10.29;78.67;100404.00;1825199;78;20994;-89
2022/09/21 00:30:17;;;;;;;2.17;1.80;;;;;;;10.24;78.48;100416.05;1825106;78;20879;-90
2022/09/21 00:32:44;;;;;;;2.95;1.60;;;;;;;10.20;78.41;100422.89;1825508;77;21240;-89
2022/09/21 00:35:11;;;;;;;2.42;2.15;;;;;;;10.13;78.33;100417.19;1825520;78;20965;-89
2022/09/21 00:37:37;;;;;;;2.67;1.50;;;;;;;10.09;78.34;100416.99;1825552;78;20879;-88
2022/09/21 00:40:05;;;;;;;1.30;1.20;;;;;;;10.03;78.34;100420.84;1825245;78;21317;-89
2022/09/21 00:42:33;;;;;;;2.20;1.60;;;;;;;10.01;78.34;100423.19;1825394;78;20927;-89
2022/09/21 00:45:00;;;;;;;2.52;1.92;;;;;;;9.98;78.35;100428.13;1825371;78;21220;-88
2022/09/21 00:47:35;;;;;;;1.75;1.65;;;;;;;9.95;78.30;100419.16;1825231;78;20868;-87
2022/09/21 00:50:07;;;;;;;2.67;1.75;;;;;;;9.94;78.26;100420.94;1825573;78;20884;-88
2022/09/21 00:52:37;;;;;;;1.80;1.70;;;;;;;9.91;78.25;100413.72;1825194;77;20974;-88
2022/09/21 00:55:09;;;;;;;2.45;1.77;;;;;;;9.89;78.09;100409.04;1825192;78;20848;-88
2022/09/21 00:57:36;;;;;;;2.72;2.00;;;;;;;9.87;78.03;100410.47;1825440;77;21225;-88
2022/09/21 01:00:07;;;;;;;3.35;2.37;;;;;;;9.84;77.89;100408.01;1825115;78;20963;-89
2022/09/21 01:02:36;;;;;;;5.58;2.52;;;;;;;9.82;77.77;100409.87;1825273;78;20840;-89
2022/09/21 01:05:06;;;;;;;2.52;2.10;;;;;;;9.81;77.71;100408.68;1825166;77;20872;-88
2022/09/21 01:07:35;;;;;;;4.00;2.22;;;;;;;9.79;77.65;100410.55;1825139;78;20951;-87
2022/09/21 01:10:08;;;;;;;2.52;1.60;;;;;;;9.74;77.61;100408.20;1825104;78;20930;-88
2022/09/21 01:12:52;;;;;;;1.70;1.30;;;;;;;9.70;77.52;100406.23;1825203;78;20876;-88
2022/09/21 01:15:24;;;;;;;1.98;1.77;;;;;;;9.67;77.41;100406.42;1825341;78;20982;-89
2022/09/21 01:18:11;;;;;;;1.42;1.32;;;;;;;9.63;77.29;100410.63;1825184;78;21408;-88
2022/09/21 01:20:53;;;;;;;1.85;1.60;;;;;;;9.61;77.37;100415.11;1825321;78;20958;-89
2022/09/21 01:23:34;;;;;;;2.77;1.95;;;;;;;9.57;77.45;100403.13;1825507;78;21285;-89
2022/09/21 01:26:43;;;;;;;2.52;1.70;;;;;;;9.53;77.60;100406.37;1825483;78;20919;-90
2022/09/21 01:29:23;;;;;;;4.47;3.30;;;;;;;9.48;77.59;100405.34;1825424;78;21467;-88
2022/09/21 01:31:56;;;;;;;3.30;2.58;;;;;;;9.43;77.56;100410.02;1825183;78;20990;-89
2022/09/21 01:34:43;;;;;;;3.42;2.17;;;;;;;9.39;77.59;100408.51;1827261;78;20864;-88
2022/09/21 01:37:14;;;;;;;6.85;4.90;;;;;;;9.37;77.66;100409.06;1826276;78;21191;-88
2022/09/21 01:39:43;;;;;;;4.75;2.00;;;;;;;9.35;77.69;100409.61;1824676;78;21459;-89
2022/09/21 01:42:10;;;;;;;3.87;2.25;;;;;;;9.31;77.63;100412.86;1824944;78;20875;-90
2022/09/21 01:44:37;;;;;;;2.52;1.80;;;;;;;9.27;77.69;100411.38;1825110;78;21542;-90
2022/09/21 01:47:07;;;;;;;2.58;1.67;;;;;;;9.26;77.77;100419.31;1825285;78;20915;-90
2022/09/21 01:49:37;;;;;;;3.00;2.20;;;;;;;9.19;77.82;100419.30;1825367;78;21174;-90
2022/09/21 01:52:19;;;;;;;3.42;2.17;;;;;;;9.12;77.99;100415.71;1826703;77;20946;-89
2022/09/21 01:54:53;;;;;;;3.05;2.25;;;;;;;9.05;78.28;100408.31;1827979;77;20939;-90
2022/09/21 01:57:46;;;;;;;3.05;2.45;;;;;;;9.00;78.41;100415.09;1827567;78;20911;-89
2022/09/21 02:00:14;;;;;;;3.72;2.30;;;;;;;8.97;78.41;100417.05;1827065;77;20880;-90
2022/09/21 02:02:57;;;;;;;2.60;2.25;;;;;;;8.92;78.47;100421.23;1824838;78;21203;-90
2022/09/21 02:05:24;;;;;;;3.20;2.27;;;;;;;8.89;78.58;100419.65;1824881;78;20876;-89
2022/09/21 02:07:51;;;;;;;2.83;2.25;;;;;;;8.88;78.63;100422.34;1825416;78;20934;-89
2022/09/21 02:10:36;;;;;;;3.15;2.00;;;;;;;8.86;78.64;100414.56;1825112;78;21017;-90
2022/09/21 02:13:05;;;;;;;3.85;2.42;;;;;;;8.84;78.66;100419.51;1825127;78;20848;-89
2022/09/21 02:16:11;;;;;;;4.75;2.60;;;;;;;8.83;78.66;100422.59;1825443;78;21263;-89
2022/09/21 02:19:13;;;;;;;3.00;2.35;;;;;;;8.82;78.58;100423.98;1825607;78;20872;-89
2022/09/21 02:22:15;;;;;;;2.52;2.27;;;;;;;8.78;78.53;100413.31;1825513;78;20917;-89
2022/09/21 02:24:48;;;;;;;3.58;2.50;;;;;;;8.75;78.50;100416.11;1825426;78;20951;-91
2022/09/21 02:27:30;;;;;;;5.37;3.02;;;;;;;8.71;78.49;100419.34;1825328;78;20907;-90
2022/09/21 02:30:14;;;;;;;4.22;2.47;;;;;;;8.67;78.45;100421.30;1825102;78;21921;-90
2022/09/21 02:32:53;;;;;;;19.42;12.60;;;;;;;8.64;78.54;100424.53;1825301;78;20978;-88
2022/09/21 02:36:00;;;;;;;6.72;3.60;;;;;;;8.59;78.48;100426.10;1825248;78;21030;-89
2022/09/21 02:38:50;;;;;;;2.25;2.05;;;;;;;8.54;78.57;100423.34;1825000;78;20895;-89
2022/09/21 02:41:27;;;;;;;4.87;3.12;;;;;;;8.53;78.60;100426.90;1758984;81;21550;-90
2022/09/21 02:44:14;;;;;;;3.00;2.70;;;;;;;8.49;78.64;100432.75;1720453;83;21252;-91
2022/09/21 02:46:56;;;;;;;5.45;3.30;;;;;;;8.48;78.64;100437.61;1720072;82;21002;-90
2022/09/21 02:49:33;;;;;;;5.47;2.95;;;;;;;8.44;78.68;100433.00;1688947;85;21018;-89
2022/09/21 02:52:04;;;;;;;3.98;2.67;;;;;;;8.41;78.73;100435.78;1722473;80;21246;-90
2022/09/21 02:54:31;;;;;;;4.25;3.15;;;;;;;8.40;78.75;100441.92;1721440;82;21480;-90
2022/09/21 02:56:58;;;;;;;3.80;2.98;;;;;;;8.38;78.79;100436.38;1690252;85;21374;-90
2022/09/21 02:59:26;;;;;;;6.12;3.12;;;;;;;8.35;78.87;100430.85;1720422;83;21374;-90
2022/09/21 03:01:54;;;;;;;5.40;3.25;;;;;;;8.34;78.96;100437.02;1720301;83;21038;-89
2022/09/21 03:04:22;;;;;;;7.20;2.87;;;;;;;8.33;79.00;100438.40;1689770;85;20936;-90
2022/09/21 03:06:48;;;;;;;4.35;3.12;;;;;;;8.32;79.01;100432.80;1720196;83;20919;-89
2022/09/21 03:09:16;;;;;;;7.50;4.45;;;;;;;8.30;79.02;100431.10;1720815;82;21202;-86
2022/09/21 03:11:43;;;;;;;6.22;4.17;;;;;;;8.27;79.02;100439.11;1691170;83;20956;-90
2022/09/21 03:14:12;;;;;;;6.58;4.12;;;;;;;8.23;79.06;100441.97;1712978;83;21034;-90
2022/09/21 03:16:38;;;;;;;8.68;6.15;;;;;;;8.20;79.27;100444.73;1715846;81;21015;-90
2022/09/21 03:19:05;;;;;;;6.72;3.85;;;;;;;8.18;79.41;100443.53;1753849;81;21341;-89
2022/09/21 03:21:32;;;;;;;8.20;5.03;;;;;;;8.19;79.64;100449.12;1753689;81;21286;-89
2022/09/21 03:23:58;;;;;;;5.75;4.05;;;;;;;8.21;79.79;100453.80;1753575;81;20892;-89
2022/09/21 03:26:24;;;;;;;11.50;5.45;;;;;;;8.22;79.96;100439.80;1753789;81;20912;-90
2022/09/21 03:28:53;;;;;;;9.28;8.25;;;;;;;8.24;80.21;100443.17;1753833;81;20892;-89
2022/09/21 03:31:21;;;;;;;13.13;9.08;;;;;;;8.29;80.21;100442.93;1753816;81;20951;-90
2022/09/21 03:33:47;;;;;;;13.20;7.67;;;;;;;8.33;80.26;100440.54;1754214;81;21154;-88
2022/09/21 03:36:14;;;;;;;14.90;7.05;;;;;;;8.38;80.37;100442.47;1754056;81;20841;-90
2022/09/21 03:38:41;;;;;;;8.18;6.15;;;;;;;8.44;80.29;100434.30;1754227;81;20955;-89
2022/09/21 03:41:08;;;;;;;10.43;4.78;;;;;;;8.50;80.34;100442.29;1754099;81;20931;-89
2022/09/21 03:43:35;;;;;;;7.92;4.53;;;;;;;8.57;80.22;100442.33;1754161;81;20900;-89
2022/09/21 03:46:01;;;;;;;5.55;4.37;;;;;;;8.64;80.06;100445.45;1754283;81;21135;-89
2022/09/21 03:48:28;;;;;;;5.95;4.85;;;;;;;8.71;79.95;100450.27;1753816;81;20954;-90
2022/09/21 03:50:54;;;;;;;5.28;3.80;;;;;;;8.76;79.85;100447.84;1753723;81;20891;-90
2022/09/21 03:53:21;;;;;;;3.90;3.50;;;;;;;8.84;79.79;100454.81;1753906;81;20975;-90
2022/09/21 03:55:47;;;;;;;4.62;3.67;;;;;;;8.90;79.58;100447.94;1754225;81;20896;-90
2022/09/21 03:58:14;;;;;;;18.82;12.80;;;;;;;8.97;79.42;100456.28;1768587;80;21136;-90
2022/09/21 04:00:43;;;;;;;6.03;4.40;;;;;;;9.03;79.29;100451.55;1759930;80;20951;-91
2022/09/21 04:03:09;;;;;;;4.65;3.27;;;;;;;9.08;79.06;100457.83;1760095;81;21010;-90
2022/09/21 04:05:38;;;;;;;6.78;4.30;;;;;;;9.13;78.86;100461.02;1729637;83;20907;-91
2022/09/21 04:08:05;;;;;;;7.53;5.92;;;;;;;9.16;78.77;100456.94;1735033;78;20966;-89
2022/09/21 04:10:33;;;;;;;5.30;4.58;;;;;;;9.20;78.73;100453.67;1732274;79;21377;-90
2022/09/21 04:13:00;;;;;;;5.12;3.65;;;;;;;9.26;78.70;100455.47;1759972;81;20968;-89
2022/09/21 04:15:28;;;;;;;6.00;4.12;;;;;;;9.30;78.59;100454.37;1760460;80;20965;-91
2022/09/21 04:17:55;;;;;;;5.90;3.15;;;;;;;9.35;78.62;100451.48;1754700;81;20958;-89
2022/09/21 04:20:22;;;;;;;3.85;3.35;;;;;;;9.40;78.47;100452.53;1754717;80;20991;-89
2022/09/21 04:22:50;;;;;;;6.28;4.00;;;;;;;9.45;78.31;100453.09;1754667;81;21816;-89
2022/09/21 04:25:19;;;;;;;6.50;4.22;;;;;;;9.51;78.21;100459.29;1754771;81;20872;-89
2022/09/21 04:27:47;;;;;;;6.03;3.80;;;;;;;9.57;78.22;100465.95;1755072;81;20939;-89
2022/09/21 04:30:15;;;;;;;6.35;3.62;;;;;;;9.63;77.97;100466.44;1754703;80;20923;-89
2022/09/21 04:32:41;;;;;;;6.62;4.72;;;;;;;9.67;77.69;100465.78;1754517;81;21463;-89
2022/09/21 04:35:10;;;;;;;7.37;6.62;;;;;;;9.71;77.46;100465.98;1754666;81;21918;-91
2022/09/21 04:37:37;;;;;;;6.25;4.10;;;;;;;9.75;77.36;100463.56;1754353;81;21417;-91
2022/09/21 04:40:06;;;;;;;4.92;3.92;;;;;;;9.80;77.17;100469.36;1754422;81;20911;-92
2022/09/21 04:42:34;;;;;;;4.53;3.83;;;;;;;9.86;77.13;100469.00;1754765;81;21404;-89
2022/09/21 04:45:01;;;;;;;4.53;3.80;;;;;;;9.92;76.90;100465.19;1754602;81;21458;-90
2022/09/21 04:47:30;;;;;;;8.73;3.55;;;;;;;9.96;76.37;100470.15;1754705;80;21869;-92
2022/09/21 04:49:57;;;;;;;4.33;3.35;;;;;;;9.99;76.36;100474.36;1754724;81;20915;-88
2022/09/21 04:52:24;;;;;;;4.87;3.45;;;;;;;10.04;76.07;100468.84;1754974;81;20903;-89
2022/09/21 04:54:50;;;;;;;4.03;3.40;;;;;;;10.06;75.83;100463.87;1754288;81;21010;-89
2022/09/21 04:57:17;;;;;;;9.93;3.42;;;;;;;10.10;75.62;100461.93;1754250;81;20942;-89
2022/09/21 04:59:44;;;;;;;4.20;3.55;;;;;;;10.14;75.42;100463.44;1754557;81;21751;-90
2022/09/21 05:02:15;;;;;;;7.65;4.60;;;;;;;10.18;75.18;100470.14;1756672;78;20900;-90
2022/09/21 05:04:42;;;;;;;6.92;4.25;;;;;;;10.22;75.19;100469.50;1757343;78;20924;-91
2022/09/21 05:07:08;;;;;;;9.50;6.10;;;;;;;10.25;74.93;100464.93;1756661;79;20998;-91
2022/09/21 05:12:20;;;;;;;5.53;3.67;;;;;;;10.36;74.80;100475.62;1756141;81;21459;-90
2022/09/21 05:14:47;;;;;;;7.65;3.62;;;;;;;10.43;74.84;100470.84;1748805;82;20909;-89
2022/09/21 05:17:13;;;;;;;6.85;5.08;;;;;;;10.50;74.76;100470.84;1776078;80;20981;-89
2022/09/21 05:19:40;;;;;;;8.28;6.40;;;;;;;10.61;74.70;100471.48;1775859;80;21067;-89
2022/09/21 05:22:07;;;;;;;5.35;4.47;;;;;;;10.70;74.29;100474.00;1776069;80;20922;-90
2022/09/21 05:24:34;;;;;;;10.82;8.03;;;;;;;10.76;73.92;100465.72;1778437;78;21091;-90
2022/09/21 05:27:01;;;;;;;3.45;3.15;;;;;;;10.81;73.54;100461.52;1777003;80;20975;-89
2022/09/21 05:29:27;;;;;;;6.10;4.65;;;;;;;10.86;73.67;100463.38;1776424;80;20929;-90
2022/09/21 05:32:15;;;;;;;6.92;6.22;;;;;;;10.93;73.62;100459.41;1775555;80;20992;-90
2022/09/21 05:35:17;;;;;;;4.25;3.20;;;;;;;11.00;73.39;100468.56;1775803;80;20941;-90
2022/09/21 05:37:56;;;;;;;10.20;7.60;;;;;;;11.10;73.11;100461.80;1775663;80;21952;-89
2022/09/21 05:40:24;;;;;;;7.75;6.25;;;;;;;11.32;72.93;100467.81;1776127;80;21458;-90
2022/09/21 05:42:51;;;;;;;12.40;9.05;;;;;;;11.52;72.30;100465.18;1775730;80;20937;-89
2022/09/21 05:45:20;;;;;;;8.75;4.80;;;;;;;11.70;71.70;100472.78;1775841;80;20906;-92
2022/09/21 05:47:58;;;;;;;9.55;8.45;;;;;;;11.87;71.42;100475.09;1775739;80;21371;-89
2022/09/21 05:50:45;;;;;;;6.60;3.40;;;;;;;12.05;70.93;100479.62;1775499;80;21219;-90
2022/09/21 05:53:38;;;;;;;6.95;3.17;;;;;;;12.19;70.45;100477.35;1775567;80;20985;-90
2022/09/21 05:56:18;;;;;;;5.50;3.37;;;;;;;12.30;69.79;100477.45;1777202;80;20921;-91
2022/09/21 05:59:02;;;;;;;3.47;3.12;;;;;;;12.38;69.40;100483.02;1776705;80;20902;-90
2022/09/21 06:01:44;;;;;;;3.85;2.62;;;;;;;12.47;69.07;100489.41;1725261;80;25682;-91
2022/09/21 06:04:12;;;;;;;6.95;4.45;;;;;;;12.55;68.90;100487.08;1776892;80;22051;-87
2022/09/21 06:06:47;;;;;;;3.37;3.08;;;;;;;12.67;68.78;100487.16;1770821;80;21449;-89
2022/09/21 06:09:13;;;;;;;8.83;4.58;;;;;;;12.74;68.35;100491.03;1776600;80;20957;-87
2022/09/21 06:11:41;;;;;;;7.55;6.28;;;;;;;12.88;68.07;100487.44;1777135;80;20945;-89
2022/09/21 06:14:08;;;;;;;8.85;7.80;;;;;;;13.04;67.91;100483.57;1782727;80;20909;-90
2022/09/21 06:16:39;;;;;;;2.90;2.70;;;;;;;13.30;67.50;100487.45;1823221;78;21073;-88
2022/09/21 06:19:05;;;;;;;6.45;5.22;;;;;;;13.81;66.80;100478.41;1823102;78;20829;-89
2022/09/21 06:21:32;;;;;;;17.27;14.65;;;;;;;14.37;66.11;100479.78;1823162;78;20951;-90
2022/09/21 06:24:01;;;;;;;11.78;8.85;;;;;;;14.89;64.48;100480.95;1823370;78;20951;-90
2022/09/21 06:26:28;;;;;;;6.58;5.78;;;;;;;15.26;63.09;100489.86;1791062;78;20923;-91
2022/09/21 06:28:54;;;;;;;4.85;4.35;;;;;;;15.48;62.06;100493.39;1822509;78;22064;-91
2022/09/21 06:31:21;;;;;;;4.33;3.60;;;;;;;15.60;60.88;100491.52;1824621;77;20907;-90
2022/09/21 06:33:48;;;;;;;3.47;3.02;;;;;;;15.65;60.39;100498.13;1823970;78;20872;-90
2022/09/21 06:36:15;;;;;;;4.00;3.60;;;;;;;15.67;59.88;100493.55;1823129;78;21345;-89
2022/09/21 06:38:41;;;;;;;3.22;2.60;;;;;;;15.61;59.43;100494.54;1823349;78;20880;-87
2022/09/21 06:41:08;;;;;;;4.25;3.52;;;;;;;15.50;59.59;100489.66;1823281;78;21128;-90
2022/09/21 06:43:36;;;;;;;4.42;2.80;;;;;;;15.42;59.72;100497.85;1822914;78;20895;-88
2022/09/21 06:46:04;;;;;;;3.62;2.98;;;;;;;15.34;59.86;100497.17;1822795;78;20833;-90
2022/09/21 06:48:32;;;;;;;3.15;2.58;;;;;;;15.26;60.30;100494.31;1822534;78;20935;-89
2022/09/21 06:51:00;;;;;;;5.87;3.08;;;;;;;15.22;60.56;100485.78;1822522;78;20887;-88
2022/09/21 06:53:28;;;;;;;3.77;2.83;;;;;;;15.20;60.63;100493.00;1822619;78;21123;-90
2022/09/21 06:56:06;;;;;;;2.80;2.60;;;;;;;15.05;60.31;100493.78;1791415;78;20836;-87
2022/09/21 06:58:34;;;;;;;4.37;3.08;;;;;;;15.05;60.31;100493.78;1822642;78;20895;-91
2022/09/21 07:01:10;;;;;;;4.92;2.72;;;;;;;14.93;60.34;100500.87;1822006;78;20963;-91
2022/09/21 07:03:38;;;;;;;4.58;4.15;;;;;;;14.81;60.76;100504.50;1824027;78;21333;-91
2022/09/21 07:06:06;;;;;;;5.72;5.15;;;;;;;14.76;61.26;100503.17;1823240;78;21440;-89
2022/09/21 07:08:32;;;;;;;7.65;6.00;;;;;;;14.73;61.63;100494.20;1822445;78;20927;-89
2022/09/21 07:11:00;;;;;;;10.55;5.70;;;;;;;14.73;61.63;100494.20;1822712;78;21005;-91
2022/09/21 07:13:27;;;;;;;7.58;6.12;;;;;;;14.72;61.81;100503.92;1823720;78;21044;-89
2022/09/21 07:15:54;;;;;;;4.17;2.98;;;;;;;14.71;61.85;100503.05;1826181;78;20943;-91
2022/09/21 07:18:21;;;;;;;3.35;3.10;;;;;;;14.75;62.30;100498.88;1825891;77;21859;-90
2022/09/21 07:20:50;;;;;;;4.35;3.72;;;;;;;14.75;62.30;100498.88;1825334;78;20828;-89
2022/09/21 07:23:18;;;;;;;6.58;4.03;;;;;;;14.87;62.13;100500.52;1825670;78;21341;-90
2022/09/21 07:25:51;;;;;;;3.87;2.87;;;;;;;14.96;61.73;100496.30;1825571;77;20899;-89
2022/09/21 07:28:18;;;;;;;5.25;4.33;;;;;;;15.07;61.45;100496.27;1825435;78;20856;-90
2022/09/21 07:30:44;;;;;;;3.65;3.27;;;;;;;15.47;61.55;100496.52;1825513;78;21174;-93
2022/09/21 07:33:11;;;;;;;2.70;2.50;;;;;;;15.95;60.61;100501.33;1825260;78;20943;-91
2022/09/21 07:35:37;;;;;;;17.02;11.75;;;;;;;16.46;59.10;100503.62;1825479;78;20872;-89
2022/09/21 07:38:05;;;;;;;4.60;3.77;;;;;;;16.92;58.11;100508.06;1826336;77;20954;-90
2022/09/21 07:40:34;;;;;;;8.38;6.12;;;;;;;17.37;56.57;100507.56;1828345;76;20935;-90
2022/09/21 07:43:01;;;;;;;3.12;2.92;;;;;;;17.71;55.38;100501.83;1827330;78;21195;-91
2022/09/21 07:45:30;;;;;;;6.37;3.08;;;;;;;17.96;54.25;100504.39;1826451;78;20876;-90
2022/09/21 07:48:09;;;;;;;3.40;2.85;;;;;;;18.18;53.42;100505.88;1825530;77;21456;-89
2022/09/21 07:50:37;;;;;;;5.58;2.70;;;;;;;18.33;52.78;100502.28;1825673;77;20848;-90
2022/09/21 07:53:04;;;;;;;2.50;2.33;;;;;;;18.35;52.10;100503.80;1825882;77;20915;-90
2022/09/21 07:55:32;;;;;;;3.83;2.47;;;;;;;18.30;51.71;100501.26;1826308;78;21359;-90
2022/09/21 08:00:48;;;;;;;5.35;2.70;;;;;;;18.20;51.64;100495.46;1826169;78;20887;-93
2022/09/21 08:03:17;;;;;;;4.00;2.40;;;;;;;18.09;51.71;100499.62;1826417;78;20887;-93
2022/09/21 08:05:49;;;;;;;2.50;2.30;;;;;;;18.20;51.82;100503.92;1826232;77;20963;-91
2022/09/21 08:08:16;;;;;;;2.30;2.10;;;;;;;18.47;51.65;100504.45;1826394;77;21149;-90
2022/09/21 08:10:43;;;;;;;2.05;1.82;;;;;;;18.77;50.13;100506.03;1828460;76;20868;-88
2022/09/21 08:13:12;;;;;;;2.25;2.02;;;;;;;19.03;49.03;100506.63;1827530;76;21050;-90
2022/09/21 08:15:40;;;;;;;3.02;2.17;;;;;;;19.55;48.33;100503.33;1824732;77;20963;-91
2022/09/21 08:18:07;;;;;;;2.95;2.72;;;;;;;20.19;47.17;100501.33;1824370;77;20883;-93
2022/09/21 08:20:34;;;;;;;2.92;2.70;;;;;;;20.93;46.08;100501.67;1823289;78;21083;-92
2022/09/21 08:23:01;;;;;;;6.58;5.90;;;;;;;21.70;44.06;100496.97;1823024;78;22571;-91
2022/09/21 08:25:29;;;;;;;5.33;4.15;;;;;;;22.44;42.49;100491.00;1823260;78;20931;-95
2022/09/21 08:27:59;;;;;;;3.02;2.70;;;;;;;22.83;40.78;100492.81;1822755;78;20927;-92
2022/09/21 08:30:27;;;;;;;3.83;3.45;;;;;;;22.95;39.81;100489.26;1823048;78;20884;-91
2022/09/21 08:32:54;;;;;;;1.60;1.50;;;;;;;23.02;39.28;100490.75;1823027;78;21255;-91
2022/09/21 08:35:20;;;;;;;3.50;1.47;;;;;;;22.81;38.95;100483.30;1822766;78;21416;-91
2022/09/21 08:37:50;;;;;;;1.57;1.17;;;;;;;22.52;39.34;100480.77;1817566;78;20848;-90
2022/09/21 08:40:18;;;;;;;3.65;1.25;;;;;;;22.18;39.68;100483.19;1822207;78;20915;-89
2022/09/21 08:43:08;;;;;;;1.40;1.20;;;;;;;21.73;39.88;100480.10;1822428;78;20860;-88
2022/09/21 08:45:44;;;;;;;2.15;1.20;;;;;;;21.42;40.31;100475.94;1802073;78;21239;-90
2022/09/21 08:48:23;;;;;;;1.75;0.95;;;;;;;21.11;40.80;100475.72;1822534;78;20931;-91
2022/09/21 08:50:55;;;;;;;1.72;1.10;;;;;;;20.84;41.00;100472.33;1824787;77;21044;-90
2022/09/21 08:53:32;;;;;;;1.05;0.95;;;;;;;20.60;41.53;100474.41;1823466;77;20943;-91
2022/09/21 08:56:01;;;;;;;2.22;0.85;;;;;;;20.46;42.13;100470.50;1824018;78;20872;-90
2022/09/21 08:58:30;;;;;;;1.70;1.60;;;;;;;20.60;42.18;100468.25;1823274;78;22962;-91
2022/09/21 09:01:32;;;;;;;3.40;2.95;;;;;;;20.71;41.48;100475.95;1823216;78;20903;-90
2022/09/21 09:04:18;;;;;;;2.55;1.10;;;;;;;20.75;41.23;100473.80;1823122;78;20923;-91
2022/09/21 09:07:08;;;;;;;137.57;95.72;;;;;;;20.66;41.61;100476.44;1822702;78;20926;-90
2022/09/21 09:09:59;;;;;;;23.00;19.73;;;;;;;20.49;41.66;100471.50;1821901;78;20887;-90
2022/09/21 09:12:48;;;;;;;13.80;11.48;;;;;;;20.21;42.03;100464.70;1817739;78;21219;-92
2022/09/21 09:15:30;;;;;;;5.47;4.80;;;;;;;20.22;42.44;100463.72;1826327;78;20911;-90
2022/09/21 09:18:17;;;;;;;26.12;23.95;;;;;;;20.68;42.29;100462.95;1826596;78;20844;-91
2022/09/21 09:20:50;;;;;;;8.60;7.75;;;;;;;21.15;41.09;100456.23;1826376;78;20891;-92
2022/09/21 09:23:32;;;;;;;1.42;1.32;;;;;;;21.71;40.30;100451.41;1826240;78;20927;-90
2022/09/21 09:26:07;;;;;;;7.33;4.65;;;;;;;22.36;38.74;100450.94;1824999;78;21139;-91
2022/09/21 09:29:12;;;;;;;5.97;4.42;;;;;;;22.95;37.31;100446.47;1827357;78;20927;-89
2022/09/21 09:31:40;;;;;;;2.13;1.30;;;;;;;23.24;36.83;100448.98;1826886;78;21009;-91
2022/09/21 09:34:25;;;;;;;2.02;1.55;;;;;;;23.32;36.22;100451.56;1826677;78;20875;-91
2022/09/21 09:37:10;;;;;;;1.90;1.80;;;;;;;23.11;36.37;100454.41;1798689;78;20962;-90
2022/09/21 09:39:37;;;;;;;1.65;0.70;;;;;;;22.84;36.86;100460.25;1825829;78;22143;-90
2022/09/21 09:42:34;;;;;;;1.70;0.78;;;;;;;22.54;37.22;100460.05;1826006;78;20840;-89
2022/09/21 09:45:32;;;;;;;0.93;0.85;;;;;;;22.28;37.88;100454.48;1825917;78;21029;-90
2022/09/21 09:48:16;;;;;;;2.52;0.85;;;;;;;21.98;38.22;100458.70;1823695;78;20943;-90
2022/09/21 09:50:42;;;;;;;1.02;0.80;;;;;;;21.68;38.72;100454.93;1811110;78;20864;-90
2022/09/21 09:53:19;;;;;;;0.60;0.60;;;;;;;21.44;39.39;100457.94;1826256;78;21095;-90
2022/09/21 09:55:51;;;;;;;0.95;0.62;;;;;;;21.21;39.92;100457.73;1798527;78;20926;-89
2022/09/21 09:58:22;;;;;;;1.72;1.35;;;;;;;20.95;40.24;100464.52;1826272;78;20876;-89
2022/09/21 10:00:52;;;;;;;3.30;0.95;;;;;;;20.71;40.74;100467.95;1827097;78;20891;-91
2022/09/21 10:03:23;;;;;;;1.12;1.12;;;;;;;20.46;41.30;100470.50;1826576;78;20844;-89
2022/09/21 10:05:50;;;;;;;2.58;0.98;;;;;;;20.25;41.88;100475.38;1828325;78;21131;-92
2022/09/21 10:08:40;;;;;;;1.62;1.17;;;;;;;20.05;42.10;100472.97;1826994;78;20899;-90
2022/09/21 10:11:12;;;;;;;1.10;1.10;;;;;;;19.94;42.71;100477.69;1826377;78;20836;-90
2022/09/21 10:13:46;;;;;;;2.33;0.93;;;;;;;19.83;42.63;100476.98;1826553;78;20919;-89
2022/09/21 10:16:22;;;;;;;2.05;1.10;;;;;;;19.73;42.84;100470.91;1826613;77;21416;-89
2022/09/21 10:19:00;;;;;;;2.40;0.98;;;;;;;19.58;43.09;100477.73;1826533;77;21173;-91
2022/09/21 10:21:45;;;;;;;2.95;1.30;;;;;;;19.46;43.50;100471.33;1826669;78;20848;-87
2022/09/21 10:24:25;;;;;;;1.20;1.10;;;;;;;19.42;43.50;100476.61;1826440;78;20872;-89
2022/09/21 10:28:59;;;;;;;3.30;0.90;;;;;;;19.49;43.22;100476.00;1798633;79;22581;-91
2022/09/21 10:31:29;;;;;;;4.08;3.75;;;;;;;19.49;42.60;100483.98;1759342;80;20983;-89
2022/09/21 10:34:13;;;;;;;17.23;13.78;;;;;;;19.49;42.75;100478.66;1758768;80;21209;-90
2022/09/21 10:36:40;;;;;;;;;;;;;;;19.46;43.20;100485.96;1718835;81;20984;-90
2022/09/21 10:39:31;;;;;;;4.58;4.15;;;;;;;19.38;43.16;100486.38;1739846;81;20385;-90
2022/09/21 10:42:12;;;;;;;2.65;1.85;;;;;;;19.29;43.28;100488.13;1758951;80;20912;-88
2022/09/21 10:44:44;;;;;;;4.08;1.80;;;;;;;19.19;43.22;100488.71;1758078;81;20990;-90
2022/09/21 10:47:40;;;;;;;4.92;2.22;;;;;;;19.07;43.71;100497.87;1758859;80;21146;-90
2022/09/21 10:50:29;;;;;;;1.77;1.67;;;;;;;18.94;44.21;100491.12;1738837;80;21286;-89
2022/09/21 10:53:10;;;;;;;2.17;1.90;;;;;;;18.80;44.32;100498.25;1739977;81;20892;-90
2022/09/21 10:55:45;;;;;;;1.87;1.37;;;;;;;18.66;44.70;100493.41;1758832;80;20893;-91
2022/09/21 10:58:13;;;;;;;2.75;1.47;;;;;;;18.56;44.39;100497.42;1754501;80;20968;-91
2022/09/21 11:00:50;;;;;;;2.10;1.50;;;;;;;18.46;44.30;100490.01;1759003;80;21421;-90
2022/09/21 11:03:41;;;;;;;1.42;1.32;;;;;;;18.37;44.00;100494.37;1759066;80;20884;-91
2022/09/21 11:06:22;;;;;;;2.25;2.05;;;;;;;18.28;44.17;100495.25;1758912;80;20935;-91
2022/09/21 11:09:13;;;;;;;8.83;8.03;;;;;;;18.21;44.83;100498.48;1758963;80;21677;-91
2022/09/21 11:12:04;;;;;;;8.18;7.35;;;;;;;18.16;45.11;100498.09;1759082;80;20908;-91
2022/09/21 11:14:46;;;;;;;5.62;5.08;;;;;;;18.10;45.30;100508.44;1759512;80;21271;-91
2022/09/21 11:17:42;;;;;;;3.60;3.30;;;;;;;17.99;45.26;100502.80;1760633;78;20979;-91
2022/09/21 11:20:47;;;;;;;1.70;1.60;;;;;;;17.87;45.69;100508.73;1760990;78;21188;-89
2022/09/21 11:23:57;;;;;;;1.75;1.55;;;;;;;17.73;45.77;100506.01;1761848;78;20892;-91
2022/09/21 11:26:32;;;;;;;5.20;2.33;;;;;;;17.62;45.77;100511.46;1741739;80;20978;-88
2022/09/21 11:29:18;;;;;;;1.67;1.57;;;;;;;17.55;45.31;100510.36;1746450;81;21292;-89
2022/09/21 11:32:19;;;;;;;1.40;1.22;;;;;;;17.50;45.57;100513.43;1737378;81;20877;-90
2022/09/21 11:34:55;;;;;;;3.62;1.07;;;;;;;17.45;46.01;100508.18;1747500;81;20921;-90
2022/09/21 11:37:42;;;;;;;5.75;1.50;;;;;;;17.39;46.00;100509.59;1748769;81;20939;-89
2022/09/21 11:40:31;;;;;;;12.23;7.83;;;;;;;17.32;46.22;100507.98;1747728;81;21202;-87
2022/09/21 11:43:31;;;;;;;17.62;15.25;;;;;;;17.29;46.27;100505.59;1747847;81;21331;-88
2022/09/21 11:46:09;;;;;;;3.72;2.98;;;;;;;17.31;46.43;100504.96;1722468;81;20890;-88
2022/09/21 11:49:11;;;;;;;4.10;1.67;;;;;;;17.32;46.53;100503.14;1747880;81;21476;-90
2022/09/21 11:51:49;;;;;;;2.98;2.67;;;;;;;17.36;46.63;100505.88;1727120;81;20897;-89
2022/09/21 11:54:59;;;;;;;2.33;2.12;;;;;;;17.40;46.46;100507.27;1746308;81;20912;-87
2022/09/21 11:57:48;;;;;;;2.25;2.05;;;;;;;17.44;46.02;100506.52;1745802;81;21236;-89
2022/09/21 12:00:18;;;;;;;2.85;1.20;;;;;;;17.44;45.39;100506.02;1745395;80;21334;-88
2022/09/21 12:02:56;;;;;;;10.32;7.85;;;;;;;17.44;45.20;100507.34;1745601;81;20884;-89
2022/09/21 12:05:38;;;;;;;13.80;12.33;;;;;;;17.45;45.19;100505.53;1745058;80;20972;-89